TimeAKST,TemperatureF,Dew PointF,Humidity,Sea Level PressureIn,VisibilityMPH,Wind Direction,Wind SpeedMPH,Gust SpeedMPH,PrecipitationIn,Events,Conditions,WindDirDegrees,DateUTC
12:01 AM,23.0,15.8,74,28.80,1.0,NE,6.9,-,0.01,Snow,Light Snow,50,2014-02-15 09:01:00
12:22 AM,23.0,15.8,74,28.79,0.8,NE,3.5,-,0.02,Snow,Light Snow,40,2014-02-15 09:22:00
12:33 AM,23.0,15.8,74,28.79,1.2,NE,9.2,-,0.03,Snow,Light Snow,40,2014-02-15 09:33:00
12:45 AM,23.0,15.8,74,28.79,2.0,NE,9.2,-,0.03,Snow,Light Snow,50,2014-02-15 09:45:00
12:53 AM,23.0,16.0,74,28.80,2.5,NE,10.4,-,0.03,Snow,Light Snow,50,2014-02-15 09:53:00
1:00 AM,24.8,15.8,69,28.79,3.0,ENE,18.4,23.0,0.00,Snow,Light Snow,60,2014-02-15 10:00:00
1:05 AM,24.8,15.8,69,28.79,1.8,NE,13.8,23.0,0.00,Snow,Light Snow,50,2014-02-15 10:05:00
1:17 AM,23.0,17.6,80,28.79,0.8,NE,11.5,24.2,0.01,Snow,Light Snow,50,2014-02-15 10:17:00
1:28 AM,24.8,17.6,74,28.79,0.5,NE,10.4,20.7,0.01,Snow,Snow,50,2014-02-15 10:28:00
1:53 AM,23.0,19.0,85,28.80,1.0,NE,5.8,-,0.05,Snow,Light Snow,50,2014-02-15 10:53:00
2:04 AM,23.0,19.4,86,28.79,0.8,East,4.6,-,0.01,Snow,Light Snow,90,2014-02-15 11:04:00
2:43 AM,23.0,17.6,80,28.78,1.0,ENE,9.2,-,0.05,Snow,Light Snow,60,2014-02-15 11:43:00
2:53 AM,24.1,18.0,77,28.79,0.5,ENE,11.5,-,0.05,Snow,Snow,70,2014-02-15 11:53:00
3:13 AM,23.0,17.6,80,28.78,0.8,NE,5.8,-,0.02,Snow,Light Snow,50,2014-02-15 12:13:00
3:39 AM,23.0,17.6,80,28.77,1.2,NE,9.2,-,0.04,Snow,Light Snow,50,2014-02-15 12:39:00
3:45 AM,23.0,17.6,80,28.77,2.0,NE,8.1,-,0.05,Snow,Light Snow,50,2014-02-15 12:45:00
3:53 AM,23.0,17.1,78,28.77,2.5,NE,9.2,-,0.05,Snow,Light Snow,40,2014-02-15 12:53:00
4:11 AM,21.2,15.8,80,28.77,7.0,NE,9.2,-,0.00,Snow,Light Snow,50,2014-02-15 13:11:00
4:21 AM,21.2,15.8,80,28.77,9.0,NE,6.9,-,0.00,,Partly Cloudy,50,2014-02-15 13:21:00
4:53 AM,23.0,15.1,72,28.77,10.0,NE,6.9,-,0.00,,Overcast,50,2014-02-15 13:53:00
5:31 AM,23.0,17.6,80,28.75,1.8,NE,6.9,-,0.00,Snow,Light Snow,50,2014-02-15 14:31:00
5:41 AM,23.0,17.6,80,28.75,1.5,NE,4.6,-,0.01,Snow,Light Snow,40,2014-02-15 14:41:00
5:49 AM,23.0,17.6,80,28.74,2.5,NNE,4.6,-,0.01,Snow,Light Snow,20,2014-02-15 14:49:00
5:53 AM,23.0,17.1,78,28.75,4.0,North,4.6,-,0.01,Snow,Light Snow,10,2014-02-15 14:53:00
6:53 AM,21.9,16.0,78,28.73,6.0,West,3.5,-,0.00,Snow,Light Snow,280,2014-02-15 15:53:00
7:13 AM,21.2,15.8,80,28.72,6.0,WNW,3.5,-,0.00,Snow,Light Snow,290,2014-02-15 16:13:00
7:21 AM,21.2,15.8,80,28.72,8.0,West,4.6,-,0.00,Snow,Light Snow,280,2014-02-15 16:21:00
7:50 AM,21.2,15.8,80,28.72,9.0,WNW,3.5,-,0.00,,Overcast,290,2014-02-15 16:50:00
7:53 AM,21.0,15.1,78,28.72,9.0,Calm,Calm,-,0.00,,Overcast,0,2014-02-15 16:53:00
8:46 AM,17.6,12.2,79,28.70,10.0,Calm,Calm,-,N/A,,Overcast,0,2014-02-15 17:46:00
8:53 AM,17.1,12.0,81,28.71,6.0,Calm,Calm,-,0.00,Snow,Light Snow,0,2014-02-15 17:53:00
8:59 AM,17.6,12.2,79,28.70,1.8,Calm,Calm,-,0.00,Snow,Light Snow,0,2014-02-15 17:59:00
9:06 AM,19.4,14.0,80,28.70,1.0,Calm,Calm,-,0.01,Snow,Light Snow,0,2014-02-15 18:06:00
9:33 AM,21.2,15.8,80,28.69,3.0,Calm,Calm,-,0.02,Snow,Light Snow,0,2014-02-15 18:33:00
9:45 AM,23.0,15.8,74,28.69,9.0,NNW,4.6,-,0.02,,Overcast,340,2014-02-15 18:45:00
9:53 AM,21.9,14.0,72,28.69,10.0,Calm,Calm,-,0.02,,Mostly Cloudy,0,2014-02-15 18:53:00
10:53 AM,23.0,15.1,72,28.68,5.0,WSW,5.8,-,0.00,Snow,Light Snow,240,2014-02-15 19:53:00
11:03 AM,23.0,17.6,80,28.67,1.8,WSW,3.5,-,0.00,Snow,Light Snow,240,2014-02-15 20:03:00
11:11 AM,23.0,17.6,80,28.66,0.8,WSW,9.2,-,0.01,Snow,Light Snow,240,2014-02-15 20:11:00
11:44 AM,24.8,17.6,74,28.65,1.8,WSW,11.5,-,0.03,Snow,Light Snow,240,2014-02-15 20:44:00
11:53 AM,24.1,18.0,77,28.65,1.5,WSW,9.2,-,0.03,Snow,Light Snow,250,2014-02-15 20:53:00
12:41 PM,24.8,17.6,74,28.62,4.0,NNW,8.1,-,0.03,Snow,Light Snow,330,2014-02-15 21:41:00
12:53 PM,24.1,16.0,71,28.63,6.0,NNW,5.8,-,0.03,Snow,Light Snow,330,2014-02-15 21:53:00
1:53 PM,24.1,12.0,60,28.61,10.0,Calm,Calm,-,0.00,,Overcast,0,2014-02-15 22:53:00
2:53 PM,26.1,10.0,51,28.60,6.0,Calm,Calm,-,N/A,,Haze,0,2014-02-15 23:53:00
3:53 PM,25.0,10.0,53,28.60,10.0,NW,3.5,-,N/A,,Mostly Cloudy,320,2014-02-16 00:53:00
4:53 PM,25.0,9.0,51,28.60,10.0,Variable,3.5,-,N/A,,Mostly Cloudy,0,2014-02-16 01:53:00
5:53 PM,23.0,10.0,58,28.61,10.0,WNW,3.5,-,N/A,,Overcast,300,2014-02-16 02:53:00
6:53 PM,21.9,10.9,63,28.61,10.0,North,3.5,-,N/A,,Overcast,360,2014-02-16 03:53:00
7:53 PM,21.0,9.0,60,28.62,10.0,NE,4.6,-,N/A,,Overcast,50,2014-02-16 04:53:00
8:53 PM,21.0,10.9,65,28.64,8.0,ENE,3.5,-,N/A,,Overcast,60,2014-02-16 05:53:00
9:53 PM,21.0,12.9,71,28.65,8.0,Calm,Calm,-,0.00,,Overcast,0,2014-02-16 06:53:00
10:03 PM,21.2,12.2,68,28.65,2.0,Calm,Calm,-,0.00,Snow,Light Snow,0,2014-02-16 07:03:00
10:07 PM,21.2,12.2,68,28.65,0.8,Calm,Calm,-,0.00,Snow,Light Snow,0,2014-02-16 07:07:00
10:19 PM,19.4,14.0,80,28.66,0.2,Calm,Calm,-,0.02,Snow,Heavy Snow,0,2014-02-16 07:19:00
10:31 PM,19.4,15.8,86,28.66,0.2,North,4.6,-,0.05,Snow,Heavy Snow,350,2014-02-16 07:31:00
10:53 PM,19.9,16.0,85,28.67,0.8,Calm,Calm,-,0.11,Snow,Light Snow,0,2014-02-16 07:53:00
11:03 PM,21.2,15.8,80,28.67,1.2,North,3.5,-,0.00,Snow,Light Snow,350,2014-02-16 08:03:00
11:14 PM,21.2,15.8,80,28.67,3.0,Calm,Calm,-,0.01,Snow,Light Snow,0,2014-02-16 08:14:00
11:53 PM,23.0,15.1,72,28.70,7.0,WSW,6.9,-,0.01,Snow,Light Snow,250,2014-02-16 08:53:00